sensor_id;sensor_type;location;lat;lon;timestamp;temperature;humidity
67249;SHT31;63247;54.300;18.592;2022-10-16T00:00:16;12.27;99.99
67249;SHT31;63247;54.300;18.592;2022-10-16T00:02:42;12.31;99.99
67249;SHT31;63247;54.300;18.592;2022-10-16T00:05:07;12.33;99.99
67249;SHT31;63247;54.300;18.592;2022-10-16T00:07:32;12.33;99.99
67249;SHT31;63247;54.300;18.592;2022-10-16T00:09:58;12.33;99.99
67249;SHT31;63247;54.300;18.592;2022-10-16T00:12:23;12.34;99.99
67249;SHT31;63247;54.300;18.592;2022-10-16T00:14:49;12.30;99.99
67249;SHT31;63247;54.300;18.592;2022-10-16T00:17:14;12.33;99.99
67249;SHT31;63247;54.300;18.592;2022-10-16T00:19:39;12.40;99.99
67249;SHT31;63247;54.300;18.592;2022-10-16T00:22:05;12.51;99.99
67249;SHT31;63247;54.300;18.592;2022-10-16T00:24:30;12.58;99.99
67249;SHT31;63247;54.300;18.592;2022-10-16T00:26:56;12.58;99.99
67249;SHT31;63247;54.300;18.592;2022-10-16T00:29:21;12.59;99.99
67249;SHT31;63247;54.300;18.592;2022-10-16T00:31:46;12.59;99.99
67249;SHT31;63247;54.300;18.592;2022-10-16T00:34:12;12.61;99.99
67249;SHT31;63247;54.300;18.592;2022-10-16T00:36:37;12.61;99.99
67249;SHT31;63247;54.300;18.592;2022-10-16T00:39:03;12.65;99.99
67249;SHT31;63247;54.300;18.592;2022-10-16T00:41:28;12.69;99.99
67249;SHT31;63247;54.300;18.592;2022-10-16T00:43:59;12.76;99.99
67249;SHT31;63247;54.300;18.592;2022-10-16T00:46:37;12.81;99.99
67249;SHT31;63247;54.300;18.592;2022-10-16T00:49:11;12.85;99.99
67249;SHT31;63247;54.300;18.592;2022-10-16T00:51:58;12.83;99.99
67249;SHT31;63247;54.300;18.592;2022-10-16T00:54:26;12.86;99.99
67249;SHT31;63247;54.300;18.592;2022-10-16T00:56:52;12.79;99.99
67249;SHT31;63247;54.300;18.592;2022-10-16T00:59:23;12.82;99.99
67249;SHT31;63247;54.300;18.592;2022-10-16T01:01:50;12.86;99.99
67249;SHT31;63247;54.300;18.592;2022-10-16T01:04:16;12.89;99.99
67249;SHT31;63247;54.300;18.592;2022-10-16T01:09:44;13.00;99.99
67249;SHT31;63247;54.300;18.592;2022-10-16T01:12:17;13.03;99.99
67249;SHT31;63247;54.300;18.592;2022-10-16T01:14:57;13.07;99.99
67249;SHT31;63247;54.300;18.592;2022-10-16T01:17:53;13.09;99.99
67249;SHT31;63247;54.300;18.592;2022-10-16T01:23:13;13.07;99.99
67249;SHT31;63247;54.300;18.592;2022-10-16T01:28:59;13.17;99.99
67249;SHT31;63247;54.300;18.592;2022-10-16T01:31:29;13.17;99.99
67249;SHT31;63247;54.300;18.592;2022-10-16T01:34:15;13.23;99.99
67249;SHT31;63247;54.300;18.592;2022-10-16T01:36:46;13.21;99.99
67249;SHT31;63247;54.300;18.592;2022-10-16T01:39:14;13.23;99.99
67249;SHT31;63247;54.300;18.592;2022-10-16T01:42:43;13.21;99.99
67249;SHT31;63247;54.300;18.592;2022-10-16T01:44:43;13.24;99.99
67249;SHT31;63247;54.300;18.592;2022-10-16T01:47:10;13.26;99.99
67249;SHT31;63247;54.300;18.592;2022-10-16T01:49:38;13.30;99.99
67249;SHT31;63247;54.300;18.592;2022-10-16T01:52:09;13.27;99.99
67249;SHT31;63247;54.300;18.592;2022-10-16T01:54:37;13.27;99.99
67249;SHT31;63247;54.300;18.592;2022-10-16T01:57:06;13.36;99.99
67249;SHT31;63247;54.300;18.592;2022-10-16T01:59:35;13.41;99.99
67249;SHT31;63247;54.300;18.592;2022-10-16T02:02:06;13.43;99.99
67249;SHT31;63247;54.300;18.592;2022-10-16T02:04:37;13.50;99.87
67249;SHT31;63247;54.300;18.592;2022-10-16T02:07:04;13.50;99.77
67249;SHT31;63247;54.300;18.592;2022-10-16T02:09:30;13.58;99.21
67249;SHT31;63247;54.300;18.592;2022-10-16T02:11:59;13.54;99.00
67249;SHT31;63247;54.300;18.592;2022-10-16T02:14:28;13.54;98.93
67249;SHT31;63247;54.300;18.592;2022-10-16T02:16:54;13.48;99.02
67249;SHT31;63247;54.300;18.592;2022-10-16T02:19:20;13.50;98.81
67249;SHT31;63247;54.300;18.592;2022-10-16T02:21:57;13.46;98.90
67249;SHT31;63247;54.300;18.592;2022-10-16T02:24:35;13.44;98.91
67249;SHT31;63247;54.300;18.592;2022-10-16T02:27:08;13.33;99.11
67249;SHT31;63247;54.300;18.592;2022-10-16T02:29:40;13.30;99.30
67249;SHT31;63247;54.300;18.592;2022-10-16T02:32:10;13.26;99.32
67249;SHT31;63247;54.300;18.592;2022-10-16T02:34:38;13.27;99.31
67249;SHT31;63247;54.300;18.592;2022-10-16T02:37:05;13.28;99.32
67249;SHT31;63247;54.300;18.592;2022-10-16T02:39:32;13.28;99.38
67249;SHT31;63247;54.300;18.592;2022-10-16T02:41:58;13.23;99.56
67249;SHT31;63247;54.300;18.592;2022-10-16T02:44:24;13.17;99.71
67249;SHT31;63247;54.300;18.592;2022-10-16T02:46:49;13.13;99.82
67249;SHT31;63247;54.300;18.592;2022-10-16T02:49:14;13.13;99.87
67249;SHT31;63247;54.300;18.592;2022-10-16T02:51:40;13.12;99.98
67249;SHT31;63247;54.300;18.592;2022-10-16T02:54:06;13.10;99.99
67249;SHT31;63247;54.300;18.592;2022-10-16T02:56:31;13.07;99.99
67249;SHT31;63247;54.300;18.592;2022-10-16T02:58:56;13.07;99.99
67249;SHT31;63247;54.300;18.592;2022-10-16T03:01:22;13.04;99.99
67249;SHT31;63247;54.300;18.592;2022-10-16T03:03:48;13.03;99.99
67249;SHT31;63247;54.300;18.592;2022-10-16T03:06:13;13.04;99.99
67249;SHT31;63247;54.300;18.592;2022-10-16T03:08:38;13.00;99.99
67249;SHT31;63247;54.300;18.592;2022-10-16T03:11:04;13.03;99.99
67249;SHT31;63247;54.300;18.592;2022-10-16T03:13:29;13.04;99.99
67249;SHT31;63247;54.300;18.592;2022-10-16T03:15:55;13.02;99.99
67249;SHT31;63247;54.300;18.592;2022-10-16T03:18:20;13.10;99.99
67249;SHT31;63247;54.300;18.592;2022-10-16T03:20:45;13.14;99.99
67249;SHT31;63247;54.300;18.592;2022-10-16T03:23:11;13.14;99.99
67249;SHT31;63247;54.300;18.592;2022-10-16T03:25:36;13.14;99.99
67249;SHT31;63247;54.300;18.592;2022-10-16T03:28:02;13.20;99.99
67249;SHT31;63247;54.300;18.592;2022-10-16T03:30:28;13.20;99.99
67249;SHT31;63247;54.300;18.592;2022-10-16T03:32:53;13.21;99.99
67249;SHT31;63247;54.300;18.592;2022-10-16T03:35:23;13.26;99.99
67249;SHT31;63247;54.300;18.592;2022-10-16T03:37:49;13.26;99.92
67249;SHT31;63247;54.300;18.592;2022-10-16T03:40:16;13.24;99.94
67249;SHT31;63247;54.300;18.592;2022-10-16T03:42:44;13.23;99.99
67249;SHT31;63247;54.300;18.592;2022-10-16T03:45:10;13.24;99.99
67249;SHT31;63247;54.300;18.592;2022-10-16T03:47:36;13.23;99.99
67249;SHT31;63247;54.300;18.592;2022-10-16T03:50:02;13.23;99.99
67249;SHT31;63247;54.300;18.592;2022-10-16T03:52:28;13.20;99.99
67249;SHT31;63247;54.300;18.592;2022-10-16T03:54:53;13.19;99.99
67249;SHT31;63247;54.300;18.592;2022-10-16T03:57:19;13.19;99.99
67249;SHT31;63247;54.300;18.592;2022-10-16T03:59:46;13.19;99.99
67249;SHT31;63247;54.300;18.592;2022-10-16T04:02:11;13.21;99.99
67249;SHT31;63247;54.300;18.592;2022-10-16T04:04:36;13.19;99.99
67249;SHT31;63247;54.300;18.592;2022-10-16T04:07:02;13.19;99.99
67249;SHT31;63247;54.300;18.592;2022-10-16T04:09:27;13.21;99.99
67249;SHT31;63247;54.300;18.592;2022-10-16T04:11:53;13.24;99.99
67249;SHT31;63247;54.300;18.592;2022-10-16T04:14:18;13.24;99.99
67249;SHT31;63247;54.300;18.592;2022-10-16T04:16:43;13.23;99.99
67249;SHT31;63247;54.300;18.592;2022-10-16T04:19:09;13.26;99.99
67249;SHT31;63247;54.300;18.592;2022-10-16T04:21:35;13.26;99.99
67249;SHT31;63247;54.300;18.592;2022-10-16T04:24:01;13.23;99.99
67249;SHT31;63247;54.300;18.592;2022-10-16T04:26:26;13.20;99.99
67249;SHT31;63247;54.300;18.592;2022-10-16T04:28:52;13.23;99.99
67249;SHT31;63247;54.300;18.592;2022-10-16T04:31:17;13.23;99.99
67249;SHT31;63247;54.300;18.592;2022-10-16T04:33:43;13.20;99.99
67249;SHT31;63247;54.300;18.592;2022-10-16T04:36:09;13.21;99.99
67249;SHT31;63247;54.300;18.592;2022-10-16T04:38:34;13.28;99.99
67249;SHT31;63247;54.300;18.592;2022-10-16T04:41:00;13.27;99.99
67249;SHT31;63247;54.300;18.592;2022-10-16T04:43:25;13.26;99.99
67249;SHT31;63247;54.300;18.592;2022-10-16T04:45:51;13.21;99.99
67249;SHT31;63247;54.300;18.592;2022-10-16T04:48:17;13.20;99.99
67249;SHT31;63247;54.300;18.592;2022-10-16T04:50:43;13.21;99.99
67249;SHT31;63247;54.300;18.592;2022-10-16T04:53:08;13.26;99.99
67249;SHT31;63247;54.300;18.592;2022-10-16T04:55:34;13.26;99.99
67249;SHT31;63247;54.300;18.592;2022-10-16T04:57:59;13.28;99.99
67249;SHT31;63247;54.300;18.592;2022-10-16T05:00:25;13.28;99.99
67249;SHT31;63247;54.300;18.592;2022-10-16T05:02:51;13.28;99.99
67249;SHT31;63247;54.300;18.592;2022-10-16T05:05:16;13.27;99.99
67249;SHT31;63247;54.300;18.592;2022-10-16T05:07:44;13.33;99.99
67249;SHT31;63247;54.300;18.592;2022-10-16T05:10:10;13.34;99.99
67249;SHT31;63247;54.300;18.592;2022-10-16T05:12:35;13.33;99.99
67249;SHT31;63247;54.300;18.592;2022-10-16T05:15:00;13.34;99.94
67249;SHT31;63247;54.300;18.592;2022-10-16T05:17:26;13.34;99.99
67249;SHT31;63247;54.300;18.592;2022-10-16T05:19:51;13.36;99.86
67249;SHT31;63247;54.300;18.592;2022-10-16T05:22:17;13.37;99.84
67249;SHT31;63247;54.300;18.592;2022-10-16T05:24:42;13.33;99.76
67249;SHT31;63247;54.300;18.592;2022-10-16T05:27:08;13.33;99.70
67249;SHT31;63247;54.300;18.592;2022-10-16T05:29:33;13.36;99.57
67249;SHT31;63247;54.300;18.592;2022-10-16T05:31:59;13.37;99.65
67249;SHT31;63247;54.300;18.592;2022-10-16T05:34:24;13.36;99.55
67249;SHT31;63247;54.300;18.592;2022-10-16T05:36:49;13.40;99.51
67249;SHT31;63247;54.300;18.592;2022-10-16T05:39:15;13.40;99.36
67249;SHT31;63247;54.300;18.592;2022-10-16T05:41:41;13.43;99.25
67249;SHT31;63247;54.300;18.592;2022-10-16T05:44:07;13.41;99.27
67249;SHT31;63247;54.300;18.592;2022-10-16T05:46:32;13.44;99.01
67249;SHT31;63247;54.300;18.592;2022-10-16T05:48:58;13.41;99.11
67249;SHT31;63247;54.300;18.592;2022-10-16T05:51:23;13.44;99.03
67249;SHT31;63247;54.300;18.592;2022-10-16T05:53:49;13.44;99.05
67249;SHT31;63247;54.300;18.592;2022-10-16T05:56:14;13.47;98.92
67249;SHT31;63247;54.300;18.592;2022-10-16T05:58:40;13.48;98.85
67249;SHT31;63247;54.300;18.592;2022-10-16T06:01:09;13.48;98.81
67249;SHT31;63247;54.300;18.592;2022-10-16T06:03:35;13.47;98.68
67249;SHT31;63247;54.300;18.592;2022-10-16T06:06:08;13.50;98.57
67249;SHT31;63247;54.300;18.592;2022-10-16T06:08:34;13.50;98.58
67249;SHT31;63247;54.300;18.592;2022-10-16T06:11:08;13.53;98.53
67249;SHT31;63247;54.300;18.592;2022-10-16T06:13:34;13.53;98.40
67249;SHT31;63247;54.300;18.592;2022-10-16T06:16:01;13.53;98.32
67249;SHT31;63247;54.300;18.592;2022-10-16T06:18:27;13.53;98.45
67249;SHT31;63247;54.300;18.592;2022-10-16T06:20:54;13.54;98.46
67249;SHT31;63247;54.300;18.592;2022-10-16T06:23:20;13.54;98.43
67249;SHT31;63247;54.300;18.592;2022-10-16T06:25:45;13.54;98.57
67249;SHT31;63247;54.300;18.592;2022-10-16T06:28:10;13.54;98.49
67249;SHT31;63247;54.300;18.592;2022-10-16T06:30:36;13.55;98.49
67249;SHT31;63247;54.300;18.592;2022-10-16T06:33:01;13.57;98.61
67249;SHT31;63247;54.300;18.592;2022-10-16T06:35:27;13.60;98.70
67249;SHT31;63247;54.300;18.592;2022-10-16T06:37:54;13.64;98.50
67249;SHT31;63247;54.300;18.592;2022-10-16T06:40:19;13.69;98.36
67249;SHT31;63247;54.300;18.592;2022-10-16T06:42:45;13.72;98.29
67249;SHT31;63247;54.300;18.592;2022-10-16T06:45:10;13.77;98.25
67249;SHT31;63247;54.300;18.592;2022-10-16T06:47:35;13.79;98.28
67249;SHT31;63247;54.300;18.592;2022-10-16T06:50:01;13.78;98.42
67249;SHT31;63247;54.300;18.592;2022-10-16T06:52:29;13.81;98.56
67249;SHT31;63247;54.300;18.592;2022-10-16T06:54:55;13.82;98.46
67249;SHT31;63247;54.300;18.592;2022-10-16T06:57:20;13.82;98.42
67249;SHT31;63247;54.300;18.592;2022-10-16T06:59:45;13.88;98.58
67249;SHT31;63247;54.300;18.592;2022-10-16T07:02:11;13.95;98.38
67249;SHT31;63247;54.300;18.592;2022-10-16T07:04:36;13.95;98.22
67249;SHT31;63247;54.300;18.592;2022-10-16T07:07:02;13.98;98.24
67249;SHT31;63247;54.300;18.592;2022-10-16T07:09:27;13.96;98.16
67249;SHT31;63247;54.300;18.592;2022-10-16T07:11:53;13.99;98.17
67249;SHT31;63247;54.300;18.592;2022-10-16T07:14:20;14.06;97.87
67249;SHT31;63247;54.300;18.592;2022-10-16T07:16:46;14.08;97.85
67249;SHT31;63247;54.300;18.592;2022-10-16T07:19:12;14.08;97.78
67249;SHT31;63247;54.300;18.592;2022-10-16T07:21:39;14.12;97.80
67249;SHT31;63247;54.300;18.592;2022-10-16T07:24:09;14.12;97.72
67249;SHT31;63247;54.300;18.592;2022-10-16T07:26:36;14.16;97.57
67249;SHT31;63247;54.300;18.592;2022-10-16T07:29:02;14.17;97.38
67249;SHT31;63247;54.300;18.592;2022-10-16T07:31:28;14.17;97.48
67249;SHT31;63247;54.300;18.592;2022-10-16T07:33:54;14.16;97.40
67249;SHT31;63247;54.300;18.592;2022-10-16T07:36:21;14.17;97.49
67249;SHT31;63247;54.300;18.592;2022-10-16T07:38:47;14.20;97.69
67249;SHT31;63247;54.300;18.592;2022-10-16T07:41:17;14.19;97.64
67249;SHT31;63247;54.300;18.592;2022-10-16T07:43:50;14.20;97.26
67249;SHT31;63247;54.300;18.592;2022-10-16T07:46:17;14.22;97.44
67249;SHT31;63247;54.300;18.592;2022-10-16T07:48:43;14.19;97.69
67249;SHT31;63247;54.300;18.592;2022-10-16T07:51:13;14.22;97.50
67249;SHT31;63247;54.300;18.592;2022-10-16T07:53:38;14.27;97.24
67249;SHT31;63247;54.300;18.592;2022-10-16T07:56:05;14.29;97.32
67249;SHT31;63247;54.300;18.592;2022-10-16T07:58:32;14.38;97.22
67249;SHT31;63247;54.300;18.592;2022-10-16T08:00:58;14.38;96.95
67249;SHT31;63247;54.300;18.592;2022-10-16T08:03:24;14.37;96.98
67249;SHT31;63247;54.300;18.592;2022-10-16T08:05:50;14.38;97.12
67249;SHT31;63247;54.300;18.592;2022-10-16T08:08:17;14.40;97.20
67249;SHT31;63247;54.300;18.592;2022-10-16T08:10:43;14.36;97.32
67249;SHT31;63247;54.300;18.592;2022-10-16T08:13:09;14.38;97.04
67249;SHT31;63247;54.300;18.592;2022-10-16T08:15:34;14.38;97.25
67249;SHT31;63247;54.300;18.592;2022-10-16T08:18:05;14.38;97.25
67249;SHT31;63247;54.300;18.592;2022-10-16T08:20:31;14.46;97.27
67249;SHT31;63247;54.300;18.592;2022-10-16T08:22:57;14.47;97.22
67249;SHT31;63247;54.300;18.592;2022-10-16T08:25:23;14.50;97.05
67249;SHT31;63247;54.300;18.592;2022-10-16T08:27:49;14.54;96.92
67249;SHT31;63247;54.300;18.592;2022-10-16T08:30:15;14.56;96.79
67249;SHT31;63247;54.300;18.592;2022-10-16T08:32:40;14.54;96.81
67249;SHT31;63247;54.300;18.592;2022-10-16T08:35:10;14.54;96.59
67249;SHT31;63247;54.300;18.592;2022-10-16T08:37:36;14.59;96.71
67249;SHT31;63247;54.300;18.592;2022-10-16T08:40:02;14.57;96.80
67249;SHT31;63247;54.300;18.592;2022-10-16T08:42:47;14.59;96.63
67249;SHT31;63247;54.300;18.592;2022-10-16T08:45:36;14.60;96.86
67249;SHT31;63247;54.300;18.592;2022-10-16T08:51:08;14.61;96.58
67249;SHT31;63247;54.300;18.592;2022-10-16T08:54:02;14.67;96.45
67249;SHT31;63247;54.300;18.592;2022-10-16T08:56:28;14.67;96.64
67249;SHT31;63247;54.300;18.592;2022-10-16T08:58:54;14.65;96.78
67249;SHT31;63247;54.300;18.592;2022-10-16T09:01:22;14.63;96.61
67249;SHT31;63247;54.300;18.592;2022-10-16T09:04:14;14.67;96.55
67249;SHT31;63247;54.300;18.592;2022-10-16T09:06:53;14.75;96.37
67249;SHT31;63247;54.300;18.592;2022-10-16T09:17:13;15.01;95.90
67249;SHT31;63247;54.300;18.592;2022-10-16T09:22:31;14.99;95.92
67249;SHT31;63247;54.300;18.592;2022-10-16T09:25:00;15.06;95.88
67249;SHT31;63247;54.300;18.592;2022-10-16T09:27:34;15.05;95.79
67249;SHT31;63247;54.300;18.592;2022-10-16T09:30:00;15.08;95.67
67249;SHT31;63247;54.300;18.592;2022-10-16T09:32:25;15.09;95.85
67249;SHT31;63247;54.300;18.592;2022-10-16T09:34:55;15.11;95.85
67249;SHT31;63247;54.300;18.592;2022-10-16T09:37:24;15.02;95.77
67249;SHT31;63247;54.300;18.592;2022-10-16T09:39:52;15.04;95.84
67249;SHT31;63247;54.300;18.592;2022-10-16T09:42:30;15.05;95.97
67249;SHT31;63247;54.300;18.592;2022-10-16T09:44:56;15.15;95.87
67249;SHT31;63247;54.300;18.592;2022-10-16T09:47:29;15.14;95.89
67249;SHT31;63247;54.300;18.592;2022-10-16T09:50:05;15.15;95.63
67249;SHT31;63247;54.300;18.592;2022-10-16T09:52:38;15.19;95.60
67249;SHT31;63247;54.300;18.592;2022-10-16T09:55:15;15.21;95.25
67249;SHT31;63247;54.300;18.592;2022-10-16T09:57:51;15.23;95.49
67249;SHT31;63247;54.300;18.592;2022-10-16T10:00:17;15.18;95.54
67249;SHT31;63247;54.300;18.592;2022-10-16T10:02:43;15.23;95.46
67249;SHT31;63247;54.300;18.592;2022-10-16T10:05:29;15.22;95.47
67249;SHT31;63247;54.300;18.592;2022-10-16T10:07:59;15.23;95.56
67249;SHT31;63247;54.300;18.592;2022-10-16T10:10:27;15.25;95.53
67249;SHT31;63247;54.300;18.592;2022-10-16T10:12:54;15.25;95.58
67249;SHT31;63247;54.300;18.592;2022-10-16T10:15:20;15.21;95.37
67249;SHT31;63247;54.300;18.592;2022-10-16T10:17:51;15.26;95.48
67249;SHT31;63247;54.300;18.592;2022-10-16T10:20:30;15.22;95.77
67249;SHT31;63247;54.300;18.592;2022-10-16T10:22:58;15.26;95.87
67249;SHT31;63247;54.300;18.592;2022-10-16T10:28:29;15.29;95.73
67249;SHT31;63247;54.300;18.592;2022-10-16T10:36:33;15.44;95.19
67249;SHT31;63247;54.300;18.592;2022-10-16T10:39:03;15.56;95.13
67249;SHT31;63247;54.300;18.592;2022-10-16T10:46:51;15.93;94.15
67249;SHT31;63247;54.300;18.592;2022-10-16T11:06:14;15.71;94.69
67249;SHT31;63247;54.300;18.592;2022-10-16T11:08:47;15.89;94.48
67249;SHT31;63247;54.300;18.592;2022-10-16T11:19:21;16.58;92.39
67249;SHT31;63247;54.300;18.592;2022-10-16T11:24:42;16.39;92.34
67249;SHT31;63247;54.300;18.592;2022-10-16T11:27:15;16.39;92.40
67249;SHT31;63247;54.300;18.592;2022-10-16T11:29:58;16.49;92.10
67249;SHT31;63247;54.300;18.592;2022-10-16T11:32:32;16.56;91.43
67249;SHT31;63247;54.300;18.592;2022-10-16T11:35:24;16.46;91.63
67249;SHT31;63247;54.300;18.592;2022-10-16T11:37:51;16.51;92.05
67249;SHT31;63247;54.300;18.592;2022-10-16T11:40:45;16.63;91.42
67249;SHT31;63247;54.300;18.592;2022-10-16T11:43:22;16.70;91.20
67249;SHT31;63247;54.300;18.592;2022-10-16T11:45:53;16.75;91.08
67249;SHT31;63247;54.300;18.592;2022-10-16T11:49:21;16.67;90.76
67249;SHT31;63247;54.300;18.592;2022-10-16T11:51:34;16.59;90.89
67249;SHT31;63247;54.300;18.592;2022-10-16T11:54:14;16.59;90.92
67249;SHT31;63247;54.300;18.592;2022-10-16T11:56:43;16.58;91.15
67249;SHT31;63247;54.300;18.592;2022-10-16T11:59:32;16.59;91.05
67249;SHT31;63247;54.300;18.592;2022-10-16T12:04:53;16.81;90.41
67249;SHT31;63247;54.300;18.592;2022-10-16T12:07:28;17.23;88.96
67249;SHT31;63247;54.300;18.592;2022-10-16T12:09:57;17.45;88.21
67249;SHT31;63247;54.300;18.592;2022-10-16T12:15:03;17.61;87.75
67249;SHT31;63247;54.300;18.592;2022-10-16T12:17:42;17.81;86.94
67249;SHT31;63247;54.300;18.592;2022-10-16T12:22:49;17.97;86.38
67249;SHT31;63247;54.300;18.592;2022-10-16T12:28:22;18.06;86.37
67249;SHT31;63247;54.300;18.592;2022-10-16T12:31:05;17.92;85.94
67249;SHT31;63247;54.300;18.592;2022-10-16T12:33:36;17.89;85.77
67249;SHT31;63247;54.300;18.592;2022-10-16T12:36:32;18.00;85.85
67249;SHT31;63247;54.300;18.592;2022-10-16T12:38:59;17.76;85.82
67249;SHT31;63247;54.300;18.592;2022-10-16T12:41:30;17.72;86.27
67249;SHT31;63247;54.300;18.592;2022-10-16T12:43:56;17.68;85.60
67249;SHT31;63247;54.300;18.592;2022-10-16T12:46:24;17.61;85.50
67249;SHT31;63247;54.300;18.592;2022-10-16T12:51:40;18.00;84.02
67249;SHT31;63247;54.300;18.592;2022-10-16T13:02:19;18.24;82.90
67249;SHT31;63247;54.300;18.592;2022-10-16T13:13:16;18.67;80.59
67249;SHT31;63247;54.300;18.592;2022-10-16T13:15:52;18.30;80.59
67249;SHT31;63247;54.300;18.592;2022-10-16T13:21:13;18.20;80.57
67249;SHT31;63247;54.300;18.592;2022-10-16T13:24:21;17.92;81.44
67249;SHT31;63247;54.300;18.592;2022-10-16T13:29:45;17.75;82.00
67249;SHT31;63247;54.300;18.592;2022-10-16T13:32:11;17.68;82.53
67249;SHT31;63247;54.300;18.592;2022-10-16T13:34:45;17.61;82.87
67249;SHT31;63247;54.300;18.592;2022-10-16T13:37:24;17.48;83.28
67249;SHT31;63247;54.300;18.592;2022-10-16T13:39:50;17.39;83.65
67249;SHT31;63247;54.300;18.592;2022-10-16T13:42:28;17.34;83.50
67249;SHT31;63247;54.300;18.592;2022-10-16T13:44:55;17.21;83.88
67249;SHT31;63247;54.300;18.592;2022-10-16T13:47:23;17.23;83.85
67249;SHT31;63247;54.300;18.592;2022-10-16T13:50:03;17.16;84.22
67249;SHT31;63247;54.300;18.592;2022-10-16T13:52:29;17.10;84.60
67249;SHT31;63247;54.300;18.592;2022-10-16T13:54:54;17.14;84.42
67249;SHT31;63247;54.300;18.592;2022-10-16T13:57:22;17.13;84.66
67249;SHT31;63247;54.300;18.592;2022-10-16T13:59:48;17.07;84.41
67249;SHT31;63247;54.300;18.592;2022-10-16T14:04:51;17.03;84.72
67249;SHT31;63247;54.300;18.592;2022-10-16T14:07:24;16.94;85.14
67249;SHT31;63247;54.300;18.592;2022-10-16T14:09:51;16.93;85.20
67249;SHT31;63247;54.300;18.592;2022-10-16T14:12:17;16.97;85.06
67249;SHT31;63247;54.300;18.592;2022-10-16T14:14:45;17.00;85.05
67249;SHT31;63247;54.300;18.592;2022-10-16T14:17:31;17.02;85.12
67249;SHT31;63247;54.300;18.592;2022-10-16T14:19:59;17.02;85.66
67249;SHT31;63247;54.300;18.592;2022-10-16T14:22:38;17.00;85.48
67249;SHT31;63247;54.300;18.592;2022-10-16T14:30:27;17.00;85.90
67249;SHT31;63247;54.300;18.592;2022-10-16T14:33:04;16.96;86.38
67249;SHT31;63247;54.300;18.592;2022-10-16T14:35:38;17.04;86.46
67249;SHT31;63247;54.300;18.592;2022-10-16T14:38:05;17.03;86.92
67249;SHT31;63247;54.300;18.592;2022-10-16T14:40:34;17.00;87.32
67249;SHT31;63247;54.300;18.592;2022-10-16T14:43:04;16.96;87.25
67249;SHT31;63247;54.300;18.592;2022-10-16T14:45:32;16.94;87.27
67249;SHT31;63247;54.300;18.592;2022-10-16T14:48:05;16.84;87.72
67249;SHT31;63247;54.300;18.592;2022-10-16T14:50:31;16.79;87.98
67249;SHT31;63247;54.300;18.592;2022-10-16T14:52:56;16.69;88.28
67249;SHT31;63247;54.300;18.592;2022-10-16T14:55:22;16.67;88.36
67249;SHT31;63247;54.300;18.592;2022-10-16T14:57:48;16.62;88.59
67249;SHT31;63247;54.300;18.592;2022-10-16T15:00:17;16.55;88.91
67249;SHT31;63247;54.300;18.592;2022-10-16T15:02:44;16.49;89.10
67249;SHT31;63247;54.300;18.592;2022-10-16T15:07:47;16.41;89.51
67249;SHT31;63247;54.300;18.592;2022-10-16T15:10:13;16.36;89.86
67249;SHT31;63247;54.300;18.592;2022-10-16T15:12:39;16.28;90.04
67249;SHT31;63247;54.300;18.592;2022-10-16T15:15:21;16.15;90.48
67249;SHT31;63247;54.300;18.592;2022-10-16T15:17:53;16.11;90.80
67249;SHT31;63247;54.300;18.592;2022-10-16T15:20:21;16.01;91.07
67249;SHT31;63247;54.300;18.592;2022-10-16T15:22:47;15.86;91.43
67249;SHT31;63247;54.300;18.592;2022-10-16T15:25:34;15.80;91.57
67249;SHT31;63247;54.300;18.592;2022-10-16T15:28:01;15.66;91.96
67249;SHT31;63247;54.300;18.592;2022-10-16T15:30:27;15.62;92.05
67249;SHT31;63247;54.300;18.592;2022-10-16T15:32:53;15.53;92.27
67249;SHT31;63247;54.300;18.592;2022-10-16T15:35:19;15.53;92.40
67249;SHT31;63247;54.300;18.592;2022-10-16T15:37:46;15.49;92.45
67249;SHT31;63247;54.300;18.592;2022-10-16T15:40:11;15.38;92.69
67249;SHT31;63247;54.300;18.592;2022-10-16T15:42:37;15.25;93.00
67249;SHT31;63247;54.300;18.592;2022-10-16T15:45:02;15.11;93.28
67249;SHT31;63247;54.300;18.592;2022-10-16T15:47:29;15.12;93.49
67249;SHT31;63247;54.300;18.592;2022-10-16T15:49:54;15.04;93.68
67249;SHT31;63247;54.300;18.592;2022-10-16T15:52:20;14.96;93.85
67249;SHT31;63247;54.300;18.592;2022-10-16T15:54:45;14.80;94.19
67249;SHT31;63247;54.300;18.592;2022-10-16T15:57:11;14.73;94.47
67249;SHT31;63247;54.300;18.592;2022-10-16T15:59:36;14.61;94.87
67249;SHT31;63247;54.300;18.592;2022-10-16T16:02:01;14.56;95.10
67249;SHT31;63247;54.300;18.592;2022-10-16T16:04:29;14.57;95.13
67249;SHT31;63247;54.300;18.592;2022-10-16T16:06:56;14.51;95.19
67249;SHT31;63247;54.300;18.592;2022-10-16T16:09:21;14.47;95.35
67249;SHT31;63247;54.300;18.592;2022-10-16T16:11:47;14.46;95.54
67249;SHT31;63247;54.300;18.592;2022-10-16T16:14:13;14.38;95.61
67249;SHT31;63247;54.300;18.592;2022-10-16T16:16:39;14.30;95.61
67249;SHT31;63247;54.300;18.592;2022-10-16T16:19:05;14.26;96.01
67249;SHT31;63247;54.300;18.592;2022-10-16T16:21:32;14.22;96.12
67249;SHT31;63247;54.300;18.592;2022-10-16T16:23:57;14.17;96.28
67249;SHT31;63247;54.300;18.592;2022-10-16T16:26:25;14.15;96.60
67249;SHT31;63247;54.300;18.592;2022-10-16T16:28:51;14.16;96.44
67249;SHT31;63247;54.300;18.592;2022-10-16T16:31:17;14.15;96.47
67249;SHT31;63247;54.300;18.592;2022-10-16T16:33:43;14.19;96.39
67249;SHT31;63247;54.300;18.592;2022-10-16T16:36:09;14.16;96.30
67249;SHT31;63247;54.300;18.592;2022-10-16T16:38:34;14.06;96.53
67249;SHT31;63247;54.300;18.592;2022-10-16T16:41:10;14.10;96.62
67249;SHT31;63247;54.300;18.592;2022-10-16T16:43:36;14.05;96.51
67249;SHT31;63247;54.300;18.592;2022-10-16T16:46:01;13.98;96.56
67249;SHT31;63247;54.300;18.592;2022-10-16T16:48:27;13.88;96.84
67249;SHT31;63247;54.300;18.592;2022-10-16T16:50:52;13.75;97.22
67249;SHT31;63247;54.300;18.592;2022-10-16T16:53:17;13.60;97.36
67249;SHT31;63247;54.300;18.592;2022-10-16T16:55:43;13.41;97.56
67249;SHT31;63247;54.300;18.592;2022-10-16T16:58:08;13.23;98.03
67249;SHT31;63247;54.300;18.592;2022-10-16T17:00:34;13.26;98.35
67249;SHT31;63247;54.300;18.592;2022-10-16T17:02:59;13.28;98.38
67249;SHT31;63247;54.300;18.592;2022-10-16T17:05:25;13.21;98.51
67249;SHT31;63247;54.300;18.592;2022-10-16T17:07:51;13.28;98.47
67249;SHT31;63247;54.300;18.592;2022-10-16T17:10:16;13.31;98.56
67249;SHT31;63247;54.300;18.592;2022-10-16T17:12:41;13.31;98.50
67249;SHT31;63247;54.300;18.592;2022-10-16T17:15:07;13.37;98.56